createdAt,value
2017-10-30T12:43:24.882Z,7.99
2017-10-30T12:45:53.519Z,8.01
2017-10-30T12:48:22.172Z,8.02
2017-10-30T12:50:50.893Z,8.04
2017-10-30T12:53:19.553Z,8.07
2017-10-30T12:55:47.986Z,8.08
2017-10-30T12:58:19.539Z,8.09
2017-10-30T13:00:47.904Z,8.10
2017-10-30T13:03:16.633Z,8.13
2017-10-30T13:05:45.290Z,8.14
2017-10-30T13:08:14.001Z,8.13
2017-10-30T13:10:42.753Z,8.16
2017-10-30T13:13:11.431Z,8.15
2017-10-30T13:15:40.125Z,8.18
2017-10-30T13:18:08.786Z,8.17
2017-10-30T13:20:37.490Z,8.17
2017-10-30T13:23:06.133Z,8.17
2017-10-30T13:25:34.861Z,8.17
2017-10-30T13:28:03.508Z,8.19
2017-10-30T13:30:32.230Z,8.18
2017-10-30T13:33:06.734Z,8.20
2017-10-30T13:35:36.432Z,8.19
2017-10-30T13:38:06.524Z,8.20
2017-10-30T13:40:37.281Z,8.21
2017-10-30T13:43:05.977Z,8.20
2017-10-30T13:45:34.623Z,8.21
2017-10-30T13:48:04.132Z,8.21
2017-10-30T13:50:33.300Z,8.20
2017-10-30T13:53:02.502Z,8.23
2017-10-30T13:55:31.236Z,8.24
2017-10-30T13:58:04.566Z,8.23
2017-10-30T14:00:38.662Z,8.23
2017-10-30T14:03:07.032Z,8.25
2017-10-30T14:05:35.666Z,8.26
2017-10-30T14:08:04.163Z,8.29
2017-10-30T14:10:32.821Z,8.29
2017-10-30T14:13:01.518Z,8.31
2017-10-30T14:15:30.268Z,8.34
2017-10-30T14:17:58.962Z,8.35
2017-10-30T14:20:27.605Z,8.36
2017-10-30T14:23:16.465Z,8.36
2017-10-30T14:25:54.161Z,8.36
2017-10-30T14:28:32.162Z,8.37
2017-10-30T14:31:10.560Z,8.37
2017-10-30T14:33:52.741Z,8.39
2017-10-30T14:36:35.721Z,8.39
2017-10-30T14:39:12.680Z,8.39
2017-10-30T14:41:52.185Z,8.41
2017-10-30T14:44:33.084Z,8.40
2017-10-30T14:47:12.591Z,8.38
2017-10-30T14:49:52.911Z,8.39
2017-10-30T14:52:31.004Z,8.40
2017-10-30T14:55:13.362Z,8.37
2017-10-30T14:57:49.766Z,8.37
2017-10-30T15:00:29.841Z,8.36
2017-10-30T15:03:09.426Z,8.35
2017-10-30T15:05:49.555Z,8.35
2017-10-30T15:08:30.289Z,8.33
2017-10-30T15:11:08.418Z,8.33
2017-10-30T15:13:51.465Z,8.32
2017-10-30T15:16:33.599Z,8.29
2017-10-30T15:19:18.030Z,8.28
2017-10-30T15:22:04.122Z,8.25
2017-10-30T15:24:49.301Z,8.22
2017-10-30T15:27:18.570Z,8.19
2017-10-30T15:29:47.308Z,8.17
2017-10-30T15:32:16.278Z,8.16
2017-10-30T15:34:44.991Z,8.14
2017-10-30T15:37:13.688Z,8.12
2017-10-30T15:39:42.409Z,8.10
2017-10-30T15:42:11.114Z,8.08
2017-10-30T15:44:39.495Z,8.03
2017-10-30T15:47:08.147Z,8.02
2017-10-30T15:49:36.840Z,8.01
2017-10-30T15:52:05.506Z,7.98
2017-10-30T15:54:49.514Z,7.95
2017-10-30T15:57:34.250Z,7.92
2017-10-30T16:00:12.691Z,7.89
2017-10-30T16:02:52.149Z,7.87
2017-10-30T16:05:34.026Z,7.86
2017-10-30T16:08:16.926Z,7.85
2017-10-30T16:11:00.866Z,7.81
2017-10-30T16:13:34.817Z,7.79
2017-10-30T16:16:14.456Z,7.79
2017-10-30T16:18:50.179Z,7.76
2017-10-30T16:21:19.519Z,7.75
2017-10-30T16:23:48.281Z,7.74
2017-10-30T16:26:16.920Z,7.73
2017-10-30T16:28:57.366Z,7.72
2017-10-30T16:31:40.723Z,7.69
2017-10-30T16:34:20.072Z,7.69
2017-10-30T16:36:49.405Z,7.66
2017-10-30T16:39:37.173Z,7.68
2017-10-30T16:42:17.594Z,7.64
2017-10-30T16:44:55.834Z,7.64
2017-10-30T16:47:39.102Z,7.63
2017-10-30T16:50:22.359Z,7.60
2017-10-30T16:53:05.528Z,7.60
2017-10-30T16:55:49.884Z,7.56
2017-10-30T16:58:33.840Z,7.55
2017-10-30T17:01:09.157Z,7.54
2017-10-30T17:03:37.849Z,7.52
2017-10-30T17:06:14.029Z,7.50
2017-10-30T17:08:52.638Z,7.47
2017-10-30T17:11:26.188Z,7.45
2017-10-30T17:14:11.087Z,7.43
2017-10-30T17:16:48.179Z,7.41
2017-10-30T17:19:30.475Z,7.39
2017-10-30T17:25:00.347Z,7.29
2017-10-30T17:27:46.194Z,7.25
2017-10-30T17:30:31.032Z,7.21
2017-10-30T17:33:15.178Z,7.16
2017-10-30T17:35:54.921Z,7.12
2017-10-30T17:38:38.678Z,7.10
2017-10-30T17:41:19.326Z,7.05
2017-10-30T17:43:59.920Z,7.02
2017-10-30T17:46:43.078Z,6.97
2017-10-30T17:49:25.607Z,6.95
2017-10-30T17:52:09.577Z,6.89
2017-10-30T17:54:45.145Z,6.87
2017-10-30T17:57:18.551Z,6.84
2017-10-30T17:59:58.547Z,6.81
2017-10-30T18:02:41.628Z,6.79
2017-10-30T18:05:25.941Z,6.77
2017-10-30T18:08:04.432Z,6.74
2017-10-30T18:10:41.475Z,6.69
2017-10-30T18:13:21.430Z,6.68
2017-10-30T18:16:06.870Z,6.65
2017-10-30T18:18:46.985Z,6.59
2017-10-30T18:21:29.105Z,6.58
2017-10-30T18:24:11.085Z,6.55
2017-10-30T18:26:54.401Z,6.51
2017-10-30T18:29:37.165Z,6.49
2017-10-30T18:32:18.968Z,6.45
2017-10-30T18:35:00.271Z,6.43
2017-10-30T18:37:38.937Z,6.40
2017-10-30T18:40:19.774Z,6.37
2017-10-30T18:42:53.405Z,6.34
2017-10-30T18:45:32.554Z,6.30
2017-10-30T18:48:15.673Z,6.29
2017-10-30T18:50:54.669Z,6.26
2017-10-30T18:53:31.372Z,6.24
2017-10-30T18:56:01.729Z,6.23
2017-10-30T18:58:44.528Z,6.21
2017-10-30T19:01:29.300Z,6.19
2017-10-30T19:04:11.003Z,6.17
2017-10-30T19:06:52.781Z,6.16
2017-10-30T19:09:37.033Z,6.13
2017-10-30T19:12:21.376Z,6.13
2017-10-30T19:15:06.660Z,6.11
2017-10-30T19:17:50.737Z,6.10
2017-10-30T19:20:29.196Z,6.09
2017-10-30T19:23:11.837Z,6.06
2017-10-30T19:25:41.304Z,6.03
2017-10-30T19:28:20.803Z,6.04
2017-10-30T19:31:01.884Z,6.03
2017-10-30T19:33:46.253Z,6.02
2017-10-30T19:36:29.083Z,6.01
2017-10-30T19:39:12.009Z,6.01
2017-10-30T19:41:55.221Z,5.98
2017-10-30T19:44:39.346Z,5.97
2017-10-30T19:47:11.002Z,5.95
2017-10-30T19:49:39.717Z,5.92
2017-10-30T19:52:20.606Z,5.92
2017-10-30T19:54:49.349Z,5.90
2017-10-30T19:57:18.158Z,5.89
2017-10-30T19:59:46.863Z,5.89
2017-10-30T20:02:15.516Z,5.87
2017-10-30T20:04:43.844Z,5.85
2017-10-30T20:07:17.850Z,5.83
2017-10-30T20:09:51.907Z,5.83
2017-10-30T20:12:26.024Z,5.80
2017-10-30T20:14:54.654Z,5.80
2017-10-30T20:17:23.298Z,5.79
2017-10-30T20:19:52.295Z,5.79
2017-10-30T20:22:20.925Z,5.78
2017-10-30T20:24:49.569Z,5.76
2017-10-30T20:27:18.311Z,5.75
2017-10-30T20:29:46.970Z,5.74
2017-10-30T20:32:15.623Z,5.75
2017-10-30T20:34:44.322Z,5.73
2017-10-30T20:37:13.346Z,5.72
2017-10-30T20:39:42.417Z,5.72
2017-10-30T20:42:11.127Z,5.72
2017-10-30T20:44:39.764Z,5.74
2017-10-30T20:47:11.432Z,5.74
2017-10-30T20:49:40.071Z,5.73
2017-10-30T20:52:08.748Z,5.73
2017-10-30T20:54:37.450Z,5.74
2017-10-30T20:57:09.952Z,5.74
2017-10-30T20:59:38.640Z,5.75
2017-10-30T21:02:07.289Z,5.73
2017-10-30T21:04:35.982Z,5.74
2017-10-30T21:07:04.433Z,5.74
2017-10-30T21:09:33.131Z,5.73
2017-10-30T21:12:01.807Z,5.73
2017-10-30T21:14:30.463Z,5.73
2017-10-30T21:16:59.211Z,5.74
2017-10-30T21:19:27.890Z,5.76
2017-10-30T21:21:56.522Z,5.74
2017-10-30T21:24:25.208Z,5.75
2017-10-30T21:26:53.882Z,5.73
2017-10-30T21:29:22.536Z,5.74
2017-10-30T21:31:51.297Z,5.74
2017-10-30T21:34:19.946Z,5.73
2017-10-30T21:36:48.594Z,5.73
2017-10-30T21:39:17.315Z,5.73
2017-10-30T21:41:46.016Z,5.74
2017-10-30T21:44:14.675Z,5.73
2017-10-30T21:46:43.383Z,5.77
2017-10-30T21:49:12.026Z,5.77
2017-10-30T21:51:40.709Z,5.78
2017-10-30T21:54:09.423Z,5.81
2017-10-30T21:56:38.083Z,5.84
2017-10-30T21:59:06.602Z,5.86
2017-10-30T22:01:35.500Z,5.89
2017-10-30T22:04:04.183Z,5.93
2017-10-30T22:06:32.879Z,5.95
2017-10-30T22:09:01.528Z,5.96
2017-10-30T22:11:30.231Z,5.98
2017-10-30T22:13:58.901Z,6.02
2017-10-30T22:16:27.595Z,6.05
2017-10-30T22:18:56.226Z,6.06
2017-10-30T22:21:24.941Z,6.06
2017-10-30T22:23:53.580Z,6.07
2017-10-30T22:26:22.356Z,6.09
2017-10-30T22:28:51.049Z,6.09
2017-10-30T22:31:19.686Z,6.09
2017-10-30T22:33:48.429Z,6.09
2017-10-30T22:36:17.193Z,6.09
2017-10-30T22:38:45.863Z,6.09
2017-10-30T22:41:14.549Z,6.07
2017-10-30T22:43:43.236Z,6.08
2017-10-30T22:46:13.873Z,6.06
2017-10-30T22:48:45.944Z,6.07
2017-10-30T22:51:14.737Z,6.07
2017-10-30T22:53:43.431Z,6.07
2017-10-30T22:56:12.089Z,6.07
2017-10-30T22:58:40.838Z,6.09
2017-10-30T23:01:09.784Z,6.09
2017-10-30T23:03:38.423Z,6.11
2017-10-30T23:06:07.122Z,6.11
2017-10-30T23:08:35.818Z,6.14
2017-10-30T23:11:04.463Z,6.17
2017-10-30T23:13:33.166Z,6.18
2017-10-30T23:16:01.865Z,6.19
2017-10-30T23:18:30.797Z,6.19
2017-10-30T23:20:59.446Z,6.21
2017-10-30T23:23:28.175Z,6.22
2017-10-30T23:25:56.822Z,6.21
2017-10-30T23:28:25.489Z,6.23
2017-10-30T23:30:54.215Z,6.24
2017-10-30T23:33:23.018Z,6.24
2017-10-30T23:35:51.677Z,6.24
2017-10-30T23:38:20.371Z,6.25
2017-10-30T23:40:49.010Z,6.25
2017-10-30T23:43:17.663Z,6.25
2017-10-30T23:45:46.448Z,6.28
2017-10-30T23:48:15.103Z,6.29
2017-10-30T23:50:43.750Z,6.33
2017-10-30T23:53:12.448Z,6.34
2017-10-30T23:55:41.104Z,6.36
2017-10-30T23:58:09.875Z,6.36
